sensor_id;sensor_type;location;lat;lon;timestamp;pressure;altitude;pressure_sealevel;temperature;humidity
9672;BME280;4874;43.568;27.824;2023-05-10T00:00:42;99577.25;;;8.20;100.00
9672;BME280;4874;43.568;27.824;2023-05-10T00:03:09;99572.69;;;8.22;100.00
9672;BME280;4874;43.568;27.824;2023-05-10T00:05:36;99575.06;;;8.14;100.00
9672;BME280;4874;43.568;27.824;2023-05-10T00:08:02;99570.16;;;8.20;100.00
9672;BME280;4874;43.568;27.824;2023-05-10T00:10:29;99566.16;;;8.15;100.00
9672;BME280;4874;43.568;27.824;2023-05-10T00:12:55;99567.81;;;8.28;100.00
9672;BME280;4874;43.568;27.824;2023-05-10T00:15:22;99557.88;;;8.19;100.00
9672;BME280;4874;43.568;27.824;2023-05-10T00:17:49;99560.03;;;8.14;100.00
9672;BME280;4874;43.568;27.824;2023-05-10T00:20:15;99560.88;;;8.15;100.00
9672;BME280;4874;43.568;27.824;2023-05-10T00:22:42;99567.03;;;8.15;100.00
9672;BME280;4874;43.568;27.824;2023-05-10T00:25:09;99560.16;;;8.13;100.00
9672;BME280;4874;43.568;27.824;2023-05-10T00:27:36;99573.47;;;8.24;100.00
9672;BME280;4874;43.568;27.824;2023-05-10T00:30:03;99564.63;;;8.47;100.00
9672;BME280;4874;43.568;27.824;2023-05-10T00:32:29;99561.97;;;8.47;100.00
9672;BME280;4874;43.568;27.824;2023-05-10T00:34:56;99563.25;;;8.30;100.00
9672;BME280;4874;43.568;27.824;2023-05-10T00:37:23;99559.53;;;8.33;100.00
9672;BME280;4874;43.568;27.824;2023-05-10T00:39:50;99562.06;;;8.11;100.00
9672;BME280;4874;43.568;27.824;2023-05-10T00:42:16;99561.50;;;8.18;100.00
9672;BME280;4874;43.568;27.824;2023-05-10T00:44:43;99554.47;;;8.30;100.00
9672;BME280;4874;43.568;27.824;2023-05-10T00:47:09;99551.72;;;8.31;100.00
9672;BME280;4874;43.568;27.824;2023-05-10T00:49:36;99561.25;;;8.21;100.00
9672;BME280;4874;43.568;27.824;2023-05-10T00:52:03;99561.13;;;8.12;100.00
9672;BME280;4874;43.568;27.824;2023-05-10T00:54:29;99566.41;;;8.12;100.00
9672;BME280;4874;43.568;27.824;2023-05-10T00:56:56;99558.91;;;8.06;100.00
9672;BME280;4874;43.568;27.824;2023-05-10T00:59:23;99559.19;;;8.38;100.00
9672;BME280;4874;43.568;27.824;2023-05-10T01:01:50;99547.63;;;8.27;100.00
9672;BME280;4874;43.568;27.824;2023-05-10T01:04:17;99549.53;;;8.25;100.00
9672;BME280;4874;43.568;27.824;2023-05-10T01:06:46;99551.00;;;8.29;100.00
9672;BME280;4874;43.568;27.824;2023-05-10T01:09:12;99551.72;;;8.31;100.00
9672;BME280;4874;43.568;27.824;2023-05-10T01:11:39;99547.75;;;8.26;100.00
9672;BME280;4874;43.568;27.824;2023-05-10T01:14:06;99550.06;;;8.18;100.00
9672;BME280;4874;43.568;27.824;2023-05-10T01:16:34;99559.66;;;8.08;100.00
9672;BME280;4874;43.568;27.824;2023-05-10T01:19:03;99551.75;;;7.84;100.00
9672;BME280;4874;43.568;27.824;2023-05-10T01:29:18;99551.41;;;7.65;100.00
9672;BME280;4874;43.568;27.824;2023-05-10T01:34:39;99551.44;;;7.53;100.00
9672;BME280;4874;43.568;27.824;2023-05-10T01:37:13;99557.75;;;7.63;100.00
9672;BME280;4874;43.568;27.824;2023-05-10T01:39:46;99555.00;;;7.64;100.00
9672;BME280;4874;43.568;27.824;2023-05-10T01:42:16;99554.59;;;7.58;100.00
9672;BME280;4874;43.568;27.824;2023-05-10T01:47:25;99550.13;;;7.35;100.00
9672;BME280;4874;43.568;27.824;2023-05-10T01:49:55;99555.03;;;7.52;100.00
9672;BME280;4874;43.568;27.824;2023-05-10T01:52:25;99557.75;;;7.63;100.00
9672;BME280;4874;43.568;27.824;2023-05-10T01:54:59;99552.00;;;7.45;100.00
9672;BME280;4874;43.568;27.824;2023-05-10T01:57:28;99550.41;;;7.43;100.00
9672;BME280;4874;43.568;27.824;2023-05-10T01:59:58;99556.66;;;7.42;100.00
9672;BME280;4874;43.568;27.824;2023-05-10T02:02:27;99551.81;;;7.36;100.00
9672;BME280;4874;43.568;27.824;2023-05-10T02:04:55;99549.41;;;7.33;100.00
9672;BME280;4874;43.568;27.824;2023-05-10T02:07:23;99543.81;;;7.25;100.00
9672;BME280;4874;43.568;27.824;2023-05-10T02:09:50;99547.34;;;7.12;100.00
9672;BME280;4874;43.568;27.824;2023-05-10T02:12:17;99545.97;;;6.94;100.00
9672;BME280;4874;43.568;27.824;2023-05-10T02:14:44;99550.50;;;7.18;100.00
9672;BME280;4874;43.568;27.824;2023-05-10T02:17:11;99555.78;;;7.18;100.00
9672;BME280;4874;43.568;27.824;2023-05-10T02:19:39;99555.38;;;7.11;100.00
9672;BME280;4874;43.568;27.824;2023-05-10T02:22:07;99551.59;;;7.02;100.00
9672;BME280;4874;43.568;27.824;2023-05-10T02:24:34;99554.41;;;6.99;100.00
9672;BME280;4874;43.568;27.824;2023-05-10T02:27:03;99551.81;;;6.74;100.00
9672;BME280;4874;43.568;27.824;2023-05-10T02:29:30;99553.41;;;6.64;100.00
9672;BME280;4874;43.568;27.824;2023-05-10T02:31:57;99556.78;;;6.66;100.00
9672;BME280;4874;43.568;27.824;2023-05-10T02:34:25;99555.81;;;6.80;100.00
9672;BME280;4874;43.568;27.824;2023-05-10T02:36:52;99550.66;;;6.78;100.00
9672;BME280;4874;43.568;27.824;2023-05-10T02:39:19;99553.81;;;6.58;100.00
9672;BME280;4874;43.568;27.824;2023-05-10T02:41:47;99551.19;;;6.71;100.00
9672;BME280;4874;43.568;27.824;2023-05-10T02:44:15;99557.53;;;6.68;100.00
9672;BME280;4874;43.568;27.824;2023-05-10T02:46:43;99557.19;;;6.60;100.00
9672;BME280;4874;43.568;27.824;2023-05-10T02:49:10;99557.09;;;6.74;100.00
9672;BME280;4874;43.568;27.824;2023-05-10T02:51:39;99559.72;;;6.74;100.00
9672;BME280;4874;43.568;27.824;2023-05-10T02:54:09;99561.00;;;6.94;100.00
9672;BME280;4874;43.568;27.824;2023-05-10T02:56:37;99555.59;;;6.70;100.00
9672;BME280;4874;43.568;27.824;2023-05-10T02:59:06;99568.72;;;6.72;100.00
9672;BME280;4874;43.568;27.824;2023-05-10T03:01:33;99560.25;;;6.79;100.00
9672;BME280;4874;43.568;27.824;2023-05-10T03:04:00;99553.06;;;6.94;100.00
9672;BME280;4874;43.568;27.824;2023-05-10T03:06:27;99555.09;;;6.90;100.00
9672;BME280;4874;43.568;27.824;2023-05-10T03:08:54;99556.69;;;6.80;100.00
9672;BME280;4874;43.568;27.824;2023-05-10T03:16:52;99568.06;;;6.68;100.00
9672;BME280;4874;43.568;27.824;2023-05-10T03:19:32;99558.16;;;6.72;100.00
9672;BME280;4874;43.568;27.824;2023-05-10T03:22:04;99568.06;;;6.68;100.00
9672;BME280;4874;43.568;27.824;2023-05-10T03:24:33;99568.06;;;6.93;100.00
9672;BME280;4874;43.568;27.824;2023-05-10T03:27:01;99566.38;;;6.67;100.00
9672;BME280;4874;43.568;27.824;2023-05-10T03:29:30;99571.25;;;6.73;100.00
9672;BME280;4874;43.568;27.824;2023-05-10T03:31:58;99561.31;;;6.77;100.00
9672;BME280;4874;43.568;27.824;2023-05-10T03:34:25;99567.25;;;6.16;100.00
9672;BME280;4874;43.568;27.824;2023-05-10T03:36:52;99564.88;;;6.38;100.00
9672;BME280;4874;43.568;27.824;2023-05-10T03:39:18;99573.31;;;6.43;100.00
9672;BME280;4874;43.568;27.824;2023-05-10T03:41:45;99570.91;;;6.53;100.00
9672;BME280;4874;43.568;27.824;2023-05-10T03:44:12;99571.97;;;6.63;100.00
9672;BME280;4874;43.568;27.824;2023-05-10T03:46:38;99581.34;;;6.54;100.00
9672;BME280;4874;43.568;27.824;2023-05-10T03:49:05;99579.44;;;6.44;100.00
9672;BME280;4874;43.568;27.824;2023-05-10T03:51:31;99582.09;;;6.69;100.00
9672;BME280;4874;43.568;27.824;2023-05-10T03:53:58;99579.03;;;6.87;100.00
9672;BME280;4874;43.568;27.824;2023-05-10T03:56:25;99573.34;;;6.68;100.00
9672;BME280;4874;43.568;27.824;2023-05-10T03:58:51;99582.19;;;6.67;100.00
9672;BME280;4874;43.568;27.824;2023-05-10T04:01:18;99578.38;;;6.59;100.00
9672;BME280;4874;43.568;27.824;2023-05-10T04:03:44;99588.19;;;6.44;100.00
9672;BME280;4874;43.568;27.824;2023-05-10T04:06:11;99584.41;;;6.36;100.00
9672;BME280;4874;43.568;27.824;2023-05-10T04:08:38;99568.25;;;6.40;100.00
9672;BME280;4874;43.568;27.824;2023-05-10T04:11:08;99589.25;;;6.42;100.00
9672;BME280;4874;43.568;27.824;2023-05-10T04:13:35;99578.19;;;6.74;100.00
9672;BME280;4874;43.568;27.824;2023-05-10T04:16:02;99580.72;;;6.63;100.00
9672;BME280;4874;43.568;27.824;2023-05-10T04:18:29;99578.63;;;6.68;100.00
9672;BME280;4874;43.568;27.824;2023-05-10T04:20:55;99590.44;;;6.63;100.00
9672;BME280;4874;43.568;27.824;2023-05-10T04:23:22;99588.31;;;6.93;100.00
9672;BME280;4874;43.568;27.824;2023-05-10T04:25:48;99579.47;;;6.81;100.00
9672;BME280;4874;43.568;27.824;2023-05-10T04:28:15;99582.19;;;7.05;100.00
9672;BME280;4874;43.568;27.824;2023-05-10T04:30:41;99586.19;;;7.10;100.00
9672;BME280;4874;43.568;27.824;2023-05-10T04:33:08;99583.31;;;7.39;100.00
9672;BME280;4874;43.568;27.824;2023-05-10T04:35:35;99589.28;;;7.41;100.00
9672;BME280;4874;43.568;27.824;2023-05-10T04:38:01;99586.50;;;7.18;100.00
9672;BME280;4874;43.568;27.824;2023-05-10T04:40:28;99587.06;;;7.11;100.00
9672;BME280;4874;43.568;27.824;2023-05-10T04:42:54;99587.97;;;7.35;100.00
9672;BME280;4874;43.568;27.824;2023-05-10T04:45:21;99581.59;;;7.74;100.00
9672;BME280;4874;43.568;27.824;2023-05-10T04:47:48;99586.00;;;7.86;100.00
9672;BME280;4874;43.568;27.824;2023-05-10T04:50:15;99582.69;;;7.71;100.00
9672;BME280;4874;43.568;27.824;2023-05-10T04:52:42;99585.97;;;7.13;100.00
9672;BME280;4874;43.568;27.824;2023-05-10T04:55:08;99590.06;;;7.66;100.00
9672;BME280;4874;43.568;27.824;2023-05-10T04:57:36;99593.41;;;7.81;100.00
9672;BME280;4874;43.568;27.824;2023-05-10T05:00:02;99592.69;;;7.79;100.00
9672;BME280;4874;43.568;27.824;2023-05-10T05:02:29;99584.63;;;7.80;100.00
9672;BME280;4874;43.568;27.824;2023-05-10T05:04:57;99586.66;;;7.77;100.00
9672;BME280;4874;43.568;27.824;2023-05-10T05:07:24;99588.78;;;7.72;100.00
9672;BME280;4874;43.568;27.824;2023-05-10T05:09:50;99592.91;;;7.76;100.00
9672;BME280;4874;43.568;27.824;2023-05-10T05:12:17;99585.81;;;7.76;100.00
9672;BME280;4874;43.568;27.824;2023-05-10T05:14:43;99589.13;;;7.67;100.00
9672;BME280;4874;43.568;27.824;2023-05-10T05:17:10;99586.91;;;7.61;100.00
9672;BME280;4874;43.568;27.824;2023-05-10T05:19:36;99576.19;;;7.99;100.00
9672;BME280;4874;43.568;27.824;2023-05-10T05:22:03;99578.22;;;8.19;100.00
9672;BME280;4874;43.568;27.824;2023-05-10T05:24:34;99577.59;;;8.15;100.00
9672;BME280;4874;43.568;27.824;2023-05-10T05:27:01;99579.75;;;9.24;100.00
9672;BME280;4874;43.568;27.824;2023-05-10T05:29:27;99571.50;;;10.03;100.00
9672;BME280;4874;43.568;27.824;2023-05-10T05:31:54;99569.72;;;10.03;100.00
9672;BME280;4874;43.568;27.824;2023-05-10T05:34:21;99569.75;;;10.76;100.00
9672;BME280;4874;43.568;27.824;2023-05-10T05:36:48;99563.56;;;10.96;100.00
9672;BME280;4874;43.568;27.824;2023-05-10T05:39:14;99567.41;;;10.62;100.00
9672;BME280;4874;43.568;27.824;2023-05-10T05:41:41;99571.22;;;10.90;100.00
9672;BME280;4874;43.568;27.824;2023-05-10T05:44:08;99572.81;;;11.32;100.00
9672;BME280;4874;43.568;27.824;2023-05-10T05:46:35;99568.75;;;11.67;100.00
9672;BME280;4874;43.568;27.824;2023-05-10T05:49:01;99565.72;;;11.91;100.00
9672;BME280;4874;43.568;27.824;2023-05-10T05:51:28;99569.25;;;12.30;100.00
9672;BME280;4874;43.568;27.824;2023-05-10T05:53:54;99565.31;;;12.15;100.00
9672;BME280;4874;43.568;27.824;2023-05-10T05:56:21;99562.91;;;12.50;100.00
9672;BME280;4874;43.568;27.824;2023-05-10T05:58:50;99571.72;;;13.35;100.00
9672;BME280;4874;43.568;27.824;2023-05-10T06:01:17;99562.56;;;13.37;100.00
9672;BME280;4874;43.568;27.824;2023-05-10T06:03:44;99568.56;;;13.12;100.00
9672;BME280;4874;43.568;27.824;2023-05-10T06:06:10;99569.22;;;12.49;100.00
9672;BME280;4874;43.568;27.824;2023-05-10T06:08:37;99570.22;;;12.38;100.00
9672;BME280;4874;43.568;27.824;2023-05-10T06:11:03;99564.56;;;12.79;100.00
9672;BME280;4874;43.568;27.824;2023-05-10T06:13:30;99564.03;;;13.49;100.00
9672;BME280;4874;43.568;27.824;2023-05-10T06:15:59;99561.97;;;13.70;100.00
9672;BME280;4874;43.568;27.824;2023-05-10T06:18:25;99558.22;;;13.36;100.00
9672;BME280;4874;43.568;27.824;2023-05-10T06:20:52;99559.69;;;13.21;100.00
9672;BME280;4874;43.568;27.824;2023-05-10T06:23:18;99560.22;;;12.78;100.00
9672;BME280;4874;43.568;27.824;2023-05-10T06:25:45;99560.25;;;13.15;100.00
9672;BME280;4874;43.568;27.824;2023-05-10T06:28:11;99557.66;;;12.86;100.00
9672;BME280;4874;43.568;27.824;2023-05-10T06:30:38;99559.06;;;12.90;100.00
9672;BME280;4874;43.568;27.824;2023-05-10T06:33:04;99560.97;;;13.17;100.00
9672;BME280;4874;43.568;27.824;2023-05-10T06:35:31;99560.63;;;13.03;100.00
9672;BME280;4874;43.568;27.824;2023-05-10T06:37:59;99560.25;;;13.15;100.00
9672;BME280;4874;43.568;27.824;2023-05-10T06:40:26;99566.41;;;13.25;100.00
9672;BME280;4874;43.568;27.824;2023-05-10T06:42:52;99561.66;;;13.73;100.00
9672;BME280;4874;43.568;27.824;2023-05-10T06:45:19;99563.84;;;12.77;100.00
9672;BME280;4874;43.568;27.824;2023-05-10T06:47:46;99570.94;;;13.15;100.00
9672;BME280;4874;43.568;27.824;2023-05-10T06:50:13;99553.09;;;13.52;100.00
9672;BME280;4874;43.568;27.824;2023-05-10T06:52:39;99550.84;;;13.21;100.00
9672;BME280;4874;43.568;27.824;2023-05-10T06:55:06;99570.59;;;12.72;100.00
9672;BME280;4874;43.568;27.824;2023-05-10T06:57:33;99564.97;;;12.84;100.00
9672;BME280;4874;43.568;27.824;2023-05-10T07:00:00;99556.75;;;13.51;100.00
9672;BME280;4874;43.568;27.824;2023-05-10T07:02:26;99560.97;;;14.34;100.00
9672;BME280;4874;43.568;27.824;2023-05-10T07:04:53;99559.91;;;13.82;100.00
9672;BME280;4874;43.568;27.824;2023-05-10T07:07:20;99571.78;;;13.16;100.00
9672;BME280;4874;43.568;27.824;2023-05-10T07:09:47;99567.75;;;14.10;100.00
9672;BME280;4874;43.568;27.824;2023-05-10T07:12:13;99568.00;;;14.35;100.00
9672;BME280;4874;43.568;27.824;2023-05-10T07:14:41;99581.66;;;13.87;100.00
9672;BME280;4874;43.568;27.824;2023-05-10T07:17:08;99560.66;;;14.19;100.00
9672;BME280;4874;43.568;27.824;2023-05-10T07:19:35;99563.38;;;14.62;100.00
9672;BME280;4874;43.568;27.824;2023-05-10T07:22:02;99573.22;;;13.91;100.00
9672;BME280;4874;43.568;27.824;2023-05-10T07:24:28;99567.75;;;14.10;100.00
9672;BME280;4874;43.568;27.824;2023-05-10T07:26:56;99570.09;;;13.96;100.00
9672;BME280;4874;43.568;27.824;2023-05-10T07:29:22;99575.66;;;13.58;100.00
9672;BME280;4874;43.568;27.824;2023-05-10T07:31:49;99568.00;;;13.45;100.00
9672;BME280;4874;43.568;27.824;2023-05-10T07:34:15;99556.31;;;14.53;100.00
9672;BME280;4874;43.568;27.824;2023-05-10T07:36:42;99560.00;;;14.78;100.00
9672;BME280;4874;43.568;27.824;2023-05-10T07:39:09;99568.50;;;14.99;100.00
9672;BME280;4874;43.568;27.824;2023-05-10T07:41:36;99570.34;;;14.55;100.00
9672;BME280;4874;43.568;27.824;2023-05-10T07:44:04;99567.97;;;14.70;100.00
9672;BME280;4874;43.568;27.824;2023-05-10T07:46:30;99571.19;;;14.99;100.00
9672;BME280;4874;43.568;27.824;2023-05-10T07:48:57;99577.94;;;15.11;100.00
9672;BME280;4874;43.568;27.824;2023-05-10T07:51:24;99571.38;;;15.65;100.00
9672;BME280;4874;43.568;27.824;2023-05-10T07:53:53;99568.22;;;15.77;100.00
9672;BME280;4874;43.568;27.824;2023-05-10T07:56:21;99562.59;;;15.96;98.42
9672;BME280;4874;43.568;27.824;2023-05-10T07:58:48;99568.91;;;15.79;91.48
9672;BME280;4874;43.568;27.824;2023-05-10T08:01:14;99562.66;;;16.20;95.61
9672;BME280;4874;43.568;27.824;2023-05-10T08:03:41;99567.63;;;15.91;94.22
9672;BME280;4874;43.568;27.824;2023-05-10T08:06:08;99575.75;;;14.10;100.00
9672;BME280;4874;43.568;27.824;2023-05-10T08:08:34;99570.47;;;14.97;100.00
9672;BME280;4874;43.568;27.824;2023-05-10T08:11:01;99562.59;;;15.47;100.00
9672;BME280;4874;43.568;27.824;2023-05-10T08:13:28;99558.63;;;15.25;100.00
9672;BME280;4874;43.568;27.824;2023-05-10T08:15:54;99567.28;;;15.19;97.25
9672;BME280;4874;43.568;27.824;2023-05-10T08:18:21;99566.97;;;15.22;92.69
9672;BME280;4874;43.568;27.824;2023-05-10T08:20:47;99565.97;;;15.23;95.46
9672;BME280;4874;43.568;27.824;2023-05-10T08:23:14;99571.84;;;15.26;96.20
9672;BME280;4874;43.568;27.824;2023-05-10T08:25:41;99568.50;;;14.99;97.68
9672;BME280;4874;43.568;27.824;2023-05-10T08:28:08;99571.66;;;14.69;100.00
9672;BME280;4874;43.568;27.824;2023-05-10T08:30:36;99569.63;;;14.71;100.00
9672;BME280;4874;43.568;27.824;2023-05-10T08:33:03;99563.72;;;15.10;100.00
9672;BME280;4874;43.568;27.824;2023-05-10T08:35:29;99568.03;;;15.63;95.99
9672;BME280;4874;43.568;27.824;2023-05-10T08:37:56;99567.34;;;15.61;97.96
9672;BME280;4874;43.568;27.824;2023-05-10T08:40:22;99572.00;;;15.51;98.85
9672;BME280;4874;43.568;27.824;2023-05-10T08:42:55;99564.31;;;16.13;94.84
9672;BME280;4874;43.568;27.824;2023-05-10T08:45:24;99560.88;;;15.71;91.26
9672;BME280;4874;43.568;27.824;2023-05-10T08:47:53;99564.56;;;16.60;88.28
9672;BME280;4874;43.568;27.824;2023-05-10T08:50:20;99566.19;;;16.29;90.08
9672;BME280;4874;43.568;27.824;2023-05-10T08:52:48;99570.53;;;15.64;92.96
9672;BME280;4874;43.568;27.824;2023-05-10T08:55:17;99566.81;;;15.23;93.02
9672;BME280;4874;43.568;27.824;2023-05-10T08:57:44;99575.41;;;16.42;87.78
9672;BME280;4874;43.568;27.824;2023-05-10T09:00:11;99569.88;;;16.36;79.45
9672;BME280;4874;43.568;27.824;2023-05-10T09:02:37;99557.69;;;16.66;78.18
9672;BME280;4874;43.568;27.824;2023-05-10T09:05:04;99563.31;;;16.30;76.47
9672;BME280;4874;43.568;27.824;2023-05-10T09:07:31;99561.66;;;16.45;78.22
9672;BME280;4874;43.568;27.824;2023-05-10T09:09:59;99560.78;;;16.05;81.22
9672;BME280;4874;43.568;27.824;2023-05-10T09:12:26;99566.25;;;15.87;81.26
9672;BME280;4874;43.568;27.824;2023-05-10T09:14:53;99565.28;;;15.47;83.68
9672;BME280;4874;43.568;27.824;2023-05-10T09:17:21;99559.56;;;15.16;87.91
9672;BME280;4874;43.568;27.824;2023-05-10T09:19:49;99564.81;;;15.51;82.31
9672;BME280;4874;43.568;27.824;2023-05-10T09:22:16;99562.94;;;16.01;77.82
9672;BME280;4874;43.568;27.824;2023-05-10T09:24:43;99562.31;;;16.07;75.12
9672;BME280;4874;43.568;27.824;2023-05-10T09:27:11;99558.44;;;15.94;72.28
9672;BME280;4874;43.568;27.824;2023-05-10T09:29:41;99556.84;;;16.65;70.95
9672;BME280;4874;43.568;27.824;2023-05-10T09:32:08;99559.16;;;16.28;72.06
9672;BME280;4874;43.568;27.824;2023-05-10T09:34:35;99559.13;;;16.20;73.65
9672;BME280;4874;43.568;27.824;2023-05-10T09:37:08;99554.09;;;16.01;77.01
9672;BME280;4874;43.568;27.824;2023-05-10T09:39:38;99556.75;;;17.21;70.05
9672;BME280;4874;43.568;27.824;2023-05-10T09:42:05;99468.31;;;15.19;78.64
9672;BME280;4874;43.568;27.824;2023-05-10T09:44:32;99554.00;;;16.51;73.25
9672;BME280;4874;43.568;27.824;2023-05-10T09:47:00;99558.31;;;15.62;78.04
9672;BME280;4874;43.568;27.824;2023-05-10T09:49:27;99563.28;;;14.89;86.19
9672;BME280;4874;43.568;27.824;2023-05-10T09:51:59;99558.84;;;15.06;90.91
9672;BME280;4874;43.568;27.824;2023-05-10T09:54:26;99561.50;;;15.65;84.97
9672;BME280;4874;43.568;27.824;2023-05-10T09:56:52;99548.81;;;15.33;85.21
9672;BME280;4874;43.568;27.824;2023-05-10T09:59:19;99546.00;;;15.85;81.17
9672;BME280;4874;43.568;27.824;2023-05-10T10:01:52;99549.41;;;16.27;75.93
9672;BME280;4874;43.568;27.824;2023-05-10T10:04:19;99540.88;;;16.07;77.88
9672;BME280;4874;43.568;27.824;2023-05-10T10:06:46;99540.09;;;16.47;76.46
9672;BME280;4874;43.568;27.824;2023-05-10T10:09:24;99542.66;;;15.83;81.43
9672;BME280;4874;43.568;27.824;2023-05-10T10:11:51;99549.47;;;16.51;84.93
9672;BME280;4874;43.568;27.824;2023-05-10T10:14:18;99557.28;;;17.01;82.49
9672;BME280;4874;43.568;27.824;2023-05-10T10:16:44;99548.06;;;16.15;81.43
9672;BME280;4874;43.568;27.824;2023-05-10T10:19:24;99546.44;;;16.70;77.28
9672;BME280;4874;43.568;27.824;2023-05-10T10:21:51;99535.88;;;16.44;76.37
9672;BME280;4874;43.568;27.824;2023-05-10T10:24:18;99540.75;;;16.81;75.88
9672;BME280;4874;43.568;27.824;2023-05-10T10:26:45;99543.91;;;16.28;76.14
9672;BME280;4874;43.568;27.824;2023-05-10T10:29:25;99550.94;;;15.22;78.05
9672;BME280;4874;43.568;27.824;2023-05-10T10:34:53;99540.59;;;16.59;75.96
9672;BME280;4874;43.568;27.824;2023-05-10T10:37:20;99541.22;;;16.44;73.36
9672;BME280;4874;43.568;27.824;2023-05-10T10:39:50;99556.31;;;16.37;73.17
9672;BME280;4874;43.568;27.824;2023-05-10T10:42:43;99533.41;;;15.61;76.34
9672;BME280;4874;43.568;27.824;2023-05-10T10:45:11;99551.38;;;15.85;77.46
9672;BME280;4874;43.568;27.824;2023-05-10T10:47:38;99552.41;;;16.00;76.28
9672;BME280;4874;43.568;27.824;2023-05-10T10:50:05;99552.69;;;15.81;73.29
9672;BME280;4874;43.568;27.824;2023-05-10T10:52:34;99552.50;;;15.66;73.09
9672;BME280;4874;43.568;27.824;2023-05-10T10:55:05;99540.28;;;15.38;74.54
9672;BME280;4874;43.568;27.824;2023-05-10T10:57:42;99543.06;;;15.54;75.43
9672;BME280;4874;43.568;27.824;2023-05-10T11:02:45;99544.91;;;15.54;74.55
9672;BME280;4874;43.568;27.824;2023-05-10T11:07:53;99545.34;;;15.91;73.63
9672;BME280;4874;43.568;27.824;2023-05-10T11:10:21;99538.50;;;16.04;72.44
9672;BME280;4874;43.568;27.824;2023-05-10T11:13:07;99539.00;;;16.08;72.48
9672;BME280;4874;43.568;27.824;2023-05-10T11:15:35;99542.69;;;14.90;76.98
9672;BME280;4874;43.568;27.824;2023-05-10T11:18:20;99541.97;;;14.80;77.34
9672;BME280;4874;43.568;27.824;2023-05-10T11:20:57;99542.72;;;15.49;76.24
9672;BME280;4874;43.568;27.824;2023-05-10T11:23:31;99535.00;;;15.46;74.32
9672;BME280;4874;43.568;27.824;2023-05-10T11:25:59;99529.91;;;16.51;73.01
9672;BME280;4874;43.568;27.824;2023-05-10T11:28:26;99521.81;;;16.34;71.93
9672;BME280;4874;43.568;27.824;2023-05-10T11:30:53;99532.84;;;15.16;74.55
9672;BME280;4874;43.568;27.824;2023-05-10T11:33:20;99533.22;;;15.29;76.79
9672;BME280;4874;43.568;27.824;2023-05-10T11:35:47;99532.97;;;15.90;85.17
9672;BME280;4874;43.568;27.824;2023-05-10T11:38:14;99533.78;;;15.82;97.02
9672;BME280;4874;43.568;27.824;2023-05-10T11:40:41;99531.09;;;14.56;100.00
9672;BME280;4874;43.568;27.824;2023-05-10T11:43:08;99520.06;;;14.76;100.00
9672;BME280;4874;43.568;27.824;2023-05-10T11:45:34;99526.66;;;14.64;100.00
9672;BME280;4874;43.568;27.824;2023-05-10T11:48:01;99519.50;;;15.24;100.00
9672;BME280;4874;43.568;27.824;2023-05-10T11:50:29;99530.13;;;14.82;100.00
9672;BME280;4874;43.568;27.824;2023-05-10T11:52:56;99527.88;;;14.95;100.00
9672;BME280;4874;43.568;27.824;2023-05-10T11:55:23;99522.84;;;15.26;100.00
9672;BME280;4874;43.568;27.824;2023-05-10T11:57:53;99521.44;;;15.14;100.00
9672;BME280;4874;43.568;27.824;2023-05-10T12:00:20;99513.41;;;16.13;100.00
9672;BME280;4874;43.568;27.824;2023-05-10T12:02:48;99526.00;;;15.55;100.00
9672;BME280;4874;43.568;27.824;2023-05-10T12:05:15;99520.44;;;15.41;100.00
9672;BME280;4874;43.568;27.824;2023-05-10T12:07:42;99508.94;;;16.30;100.00
9672;BME280;4874;43.568;27.824;2023-05-10T12:10:12;99516.81;;;16.48;100.00
9672;BME280;4874;43.568;27.824;2023-05-10T12:12:44;99509.25;;;16.11;100.00
9672;BME280;4874;43.568;27.824;2023-05-10T12:15:12;99503.69;;;16.28;100.00
9672;BME280;4874;43.568;27.824;2023-05-10T12:17:39;99499.81;;;15.83;100.00
9672;BME280;4874;43.568;27.824;2023-05-10T12:20:21;99508.63;;;15.59;100.00
9672;BME280;4874;43.568;27.824;2023-05-10T12:22:50;99509.66;;;15.66;100.00
9672;BME280;4874;43.568;27.824;2023-05-10T12:25:17;99503.97;;;15.77;100.00
9672;BME280;4874;43.568;27.824;2023-05-10T12:27:50;99511.47;;;15.58;100.00
9672;BME280;4874;43.568;27.824;2023-05-10T12:30:24;99509.03;;;15.05;100.00
9672;BME280;4874;43.568;27.824;2023-05-10T12:32:52;99510.56;;;15.07;100.00
9672;BME280;4874;43.568;27.824;2023-05-10T12:35:18;99512.72;;;15.04;100.00
9672;BME280;4874;43.568;27.824;2023-05-10T12:37:50;99501.31;;;15.02;100.00
9672;BME280;4874;43.568;27.824;2023-05-10T12:40:17;99501.28;;;15.69;100.00
9672;BME280;4874;43.568;27.824;2023-05-10T12:42:43;99509.00;;;15.30;100.00
9672;BME280;4874;43.568;27.824;2023-05-10T12:45:13;99505.84;;;15.35;100.00
9672;BME280;4874;43.568;27.824;2023-05-10T12:47:39;99508.69;;;15.33;100.00
9672;BME280;4874;43.568;27.824;2023-05-10T12:50:09;99497.69;;;15.45;99.72
9672;BME280;4874;43.568;27.824;2023-05-10T12:52:36;99495.88;;;16.59;94.74
9672;BME280;4874;43.568;27.824;2023-05-10T12:55:02;99491.25;;;15.71;98.76
9672;BME280;4874;43.568;27.824;2023-05-10T12:57:29;99490.41;;;15.21;100.00
9672;BME280;4874;43.568;27.824;2023-05-10T12:59:56;99497.34;;;15.97;98.92
9672;BME280;4874;43.568;27.824;2023-05-10T13:02:23;99495.50;;;16.38;96.43
9672;BME280;4874;43.568;27.824;2023-05-10T13:04:50;99491.91;;;15.65;97.32
9672;BME280;4874;43.568;27.824;2023-05-10T13:07:16;99484.59;;;15.91;98.91
9672;BME280;4874;43.568;27.824;2023-05-10T13:09:43;99483.19;;;15.55;100.00
9672;BME280;4874;43.568;27.824;2023-05-10T13:12:10;99489.13;;;14.99;100.00
9672;BME280;4874;43.568;27.824;2023-05-10T13:14:36;99481.69;;;15.61;100.00
9672;BME280;4874;43.568;27.824;2023-05-10T13:17:03;99490.19;;;15.06;100.00
9672;BME280;4874;43.568;27.824;2023-05-10T13:19:30;99482.56;;;15.27;100.00
9672;BME280;4874;43.568;27.824;2023-05-10T13:21:56;99491.25;;;15.29;100.00
9672;BME280;4874;43.568;27.824;2023-05-10T13:24:23;99491.56;;;15.18;100.00
9672;BME280;4874;43.568;27.824;2023-05-10T13:26:49;99476.97;;;15.47;100.00
9672;BME280;4874;43.568;27.824;2023-05-10T13:29:16;99484.31;;;16.59;99.72
9672;BME280;4874;43.568;27.824;2023-05-10T13:31:44;99485.53;;;15.58;100.00
9672;BME280;4874;43.568;27.824;2023-05-10T13:34:11;99479.06;;;15.77;100.00
9672;BME280;4874;43.568;27.824;2023-05-10T13:36:37;99468.94;;;15.47;100.00